ADDS METAR Data INFO
IDs: Format: Raw Decoded Include TAF

Data at: 0142 UTC 17 Oct 2017

K7N0 170056Z AUTO 36007G14KT 10SM CLR 22/09 A3016 RMK AO2 SLP211 T02170094
K7N0 162356Z AUTO 36006KT 10SM CLR 22/09 A3012 RMK AO2 SLP201 T02220089 10244 20217 53016
K7N0 162256Z AUTO 02006KT 10SM CLR 23/09 A3010 RMK AO2 SLP193 T02280089
K7N0 162156Z AUTO 01009G15KT 330V030 10SM CLR 23/09 A3009 RMK AO2 SLP188 T02330094
K7N0 162056Z AUTO 02012G17KT 10SM CLR 24/09 A3008 RMK AO2 SLP185 T02390094 56017
K7N0 161956Z AUTO 35007KT 310V070 10SM CLR 23/11 A3008 RMK AO2 SLP185 T02330111
K7N0 161856Z AUTO 36009G18KT 330V030 10SM CLR 22/12 A3009 RMK AO2 SLP189 T02220117
K7N0 161756Z AUTO VRB06G15KT 10SM CLR 22/14 A3013 RMK AO2 SLP202 T02220139 10222 20183 58016
K7N0 161731Z AUTO 01008G18KT 320V040 10SM FEW019 SCT110 21/14 A3014 RMK AO2
K7N0 161656Z AUTO 01008G17KT 320V040 10SM OVC015 20/15 A3015 RMK AO2 SLP211 T02000150
K7N0 161556Z AUTO 01009G16KT 340V040 10SM OVC011 19/16 A3017 RMK AO2 SLP218 T01890156 TSNO
K7N0 161521Z AUTO 01008G17KT 10SM OVC011 18/16 A3018 RMK AO2
K7N0 161456Z AUTO 01008G15KT 10SM OVC009 19/16 A3017 RMK AO2 SLP217 T01890156 53023
K7N0 161418Z AUTO 01011G20KT 10SM OVC009 19/16 A3016 RMK AO2
K7N0 161356Z AUTO 01011G16KT 330V030 10SM OVC011 20/17 A3015 RMK AO2 SLP210 T02000167
K7N0 161256Z AUTO VRB06G17KT 10SM OVC013 21/18 A3012 RMK AO2 SLP200 T02110183
K7N0 161156Z AUTO 36008KT 10SM OVC013 22/18 A3011 RMK AO2 SLP195 70023 T02170183 10250 20217 53019
K7N0 161056Z AUTO 01009G14KT 10SM OVC013 22/19 A3008 RMK AO2 SLP187 T02170189
K7N0 160956Z AUTO 01011G16KT 10SM OVC013 22/19 A3007 RMK AO2 SLP182 T02220189
K7N0 160856Z AUTO 01008G19KT 10SM BKN013 OVC021 23/20 A3005 RMK AO2 SLP175 T02280200 56005
K7N0 160821Z AUTO 02008G18KT 10SM OVC011 23/21 A3006 RMK AO2
K7N0 160756Z AUTO 01007G15KT 10SM OVC009 24/22 A3005 RMK AO2 SLP176 T02390217
K7N0 160721Z AUTO 01009KT 10SM BKN009 BKN014 OVC029 25/23 A3005 RMK AO2 CIG 007V011
K7N0 160656Z AUTO 36005KT 10SM SCT009 SCT014 BKN023 25/23 A3006 RMK AO2 SLP178 T02500228
K7N0 160654Z AUTO 01005KT 10SM SCT009 SCT014 BKN023 25/23 A3006 RMK AO2
K7N0 160556Z AUTO 36003KT 10SM SCT090 25/23 A3006 RMK AO2 SLP180 T02500228 10261 20250 58001
K7N0 160456Z AUTO 01003KT 10SM CLR 25/22 A3008 RMK AO2 SLP185 T02500222 402940250
K7N0 160356Z AUTO 00000KT 10SM CLR 25/22 A3007 RMK AO2 SLP183 T02500222
K7N0 160256Z AUTO 15003KT 10SM CLR 26/22 A3007 RMK AO2 SLP181 T02560222 50011
K7N0 160156Z AUTO 05005KT 10SM CLR 26/23 A3007 RMK AO2 SLP182 T02560228
K7N0 160056Z AUTO 06003KT 10SM CLR 26/23 A3005 RMK AO2 SLP174 T02610228
K7N0 152356Z AUTO 01004KT 10SM CLR 26/23 A3003 RMK AO2 SLP170 60023 T02610228 10278 20250 50004
K7N0 152256Z AUTO 13005KT 10SM CLR 26/23 A3004 RMK AO2 LTG DSNT S SLP171 T02610228
K7N0 152156Z AUTO 00000KT 10SM CLR 26/23 A3003 RMK AO2 LTG DSNT SE SLP170 T02610228
K7N0 152056Z AUTO 04006KT 10SM FEW012 27/23 A3002 RMK AO2 LTG DSNT E AND SE TSE08 SLP166 60023 T02670233 55020
K7N0 152019Z AUTO VRB06KT 10SM FEW040 27/24 A3002 RMK AO2 LTG DSNT E-SW TSE08
K7N0 151956Z AUTO VRB03KT 10SM TS SCT049 SCT110 28/23 A3002 RMK AO2 LTG DSNT ALQDS TSB22RAB05E17 SLP164 P0000 T02780233
K7N0 151933Z AUTO 05003KT 10SM VCTS SCT049 OVC100 27/23 A3004 RMK AO2 LTG DSNT NE-SE TSB22RAB05E17 P0000
K7N0 151856Z AUTO 08005KT 10SM FEW027 SCT035 OVC085 27/22 A3004 RMK AO2 LTG DSNT ALQDS TSE35B37E44B46E54RAB00E48 SLP172 P0023 T02670222
K7N0 151846Z AUTO VRB04KT 10SM VCTS -RA SCT029 BKN046 OVC080 26/23 A3004 RMK AO2 LTG DSNT NE-S TSE35B37E44B46RAB00 P0023
K7N0 151837Z AUTO 00000KT 5SM VCTS -RA SCT027 BKN035 OVC075 26/23 A3005 RMK AO2 LTG DSNT NE-S TSE35B37RAB00 P0023
K7N0 151815Z AUTO 00000KT 2SM +TSRA SCT015 BKN030 OVC043 25/22 A3006 RMK AO2 VIS 1V4 LTG DSNT ALQDS RAB00 P0012
K7N0 151808Z AUTO VRB03KT 3SM +TSRA SCT015 BKN019 OVC032 26/22 A3007 RMK AO2 LTG DSNT ALQDS RAB00 P0006
K7N0 151756Z AUTO VRB04KT 10SM TS BKN013 BKN033 OVC050 27/22 A3008 RMK AO2 LTG DSNT ALQDS TSB05E13B17 SLP185 T02670222 10294 20267 58004
K7N0 151753Z AUTO VRB04KT 10SM TS BKN013 BKN019 OVC050 27/22 A3008 RMK AO2 LTG DSNT ALQDS TSB05E13B17
K7N0 151736Z AUTO 21005KT 10SM VCTS FEW021 SCT032 BKN050 28/24 A3008 RMK AO2 LTG DSNT ALQDS TSB05E13B17
K7N0 151717Z AUTO VRB05KT 10SM VCTS SCT021 BKN028 OVC055 29/24 A3008 RMK AO2 LTG DSNT ALQDS TSB05E13B17
K7N0 151713Z AUTO VRB03KT 10SM SCT023 BKN039 BKN055 29/24 A3008 RMK AO2 TSB05E13
K7N0 151656Z AUTO VRB05KT 10SM SCT025 29/24 A3009 RMK AO2 LTG DSNT NE AND S AND W TSB25E50 SLP190 T02890239
K7N0 151636Z AUTO VRB05KT 10SM VCTS CLR 29/24 A3009 RMK AO2 LTG DSNT NE AND S AND SW TSB25
K7N0 151556Z AUTO 13004KT 10SM SCT021 SCT026 BKN037 29/24 A3009 RMK AO2 LTG DSNT S AND SW SLP190 T02890239
K7N0 151509Z AUTO 13005KT 10SM SCT013 29/24 A3009 RMK AO2
K7N0 151456Z AUTO VRB04KT 10SM BKN013 29/25 A3009 RMK AO2 SLP189 T02890250 51010
K7N0 151446Z AUTO VRB04KT 10SM BKN013 28/25 A3009 RMK AO2
K7N0 151356Z AUTO VRB04KT 10SM FEW042 BKN050 27/25 A3008 RMK AO2 SLP186 T02720250